sensor_id;sensor_type;location;lat;lon;timestamp;temperature;humidity
15103;DHT22;7652;53.584;9.998;2023-12-04T00:02:52;0.60;99.90
15103;DHT22;7652;53.584;9.998;2023-12-04T00:06:15;0.60;99.90
15103;DHT22;7652;53.584;9.998;2023-12-04T00:09:36;0.60;99.90
15103;DHT22;7652;53.584;9.998;2023-12-04T00:12:58;0.40;99.90
15103;DHT22;7652;53.584;9.998;2023-12-04T00:16:19;0.40;99.90
15103;DHT22;7652;53.584;9.998;2023-12-04T00:19:41;0.40;99.90
15103;DHT22;7652;53.584;9.998;2023-12-04T00:23:04;0.30;99.90
15103;DHT22;7652;53.584;9.998;2023-12-04T00:26:25;0.40;99.90
15103;DHT22;7652;53.584;9.998;2023-12-04T00:29:46;0.40;99.90
15103;DHT22;7652;53.584;9.998;2023-12-04T00:33:08;0.40;99.90
15103;DHT22;7652;53.584;9.998;2023-12-04T00:36:30;0.30;99.90
15103;DHT22;7652;53.584;9.998;2023-12-04T00:39:53;0.20;99.90
15103;DHT22;7652;53.584;9.998;2023-12-04T00:43:14;0.20;99.90
15103;DHT22;7652;53.584;9.998;2023-12-04T00:46:35;0.10;99.90
15103;DHT22;7652;53.584;9.998;2023-12-04T00:49:57;0.10;99.90
15103;DHT22;7652;53.584;9.998;2023-12-04T00:53:18;0.00;99.90
15103;DHT22;7652;53.584;9.998;2023-12-04T00:56:41;0.00;99.90
15103;DHT22;7652;53.584;9.998;2023-12-04T01:00:04;-0.10;99.90
15103;DHT22;7652;53.584;9.998;2023-12-04T01:03:25;-0.10;99.90
15103;DHT22;7652;53.584;9.998;2023-12-04T01:06:47;-0.10;99.90
15103;DHT22;7652;53.584;9.998;2023-12-04T01:10:09;0.00;99.90
15103;DHT22;7652;53.584;9.998;2023-12-04T01:13:32;-0.10;99.90
15103;DHT22;7652;53.584;9.998;2023-12-04T01:16:53;-0.20;99.90
15103;DHT22;7652;53.584;9.998;2023-12-04T01:20:16;-0.20;99.90
15103;DHT22;7652;53.584;9.998;2023-12-04T01:23:37;-0.20;99.90
15103;DHT22;7652;53.584;9.998;2023-12-04T01:26:59;-0.30;99.90
15103;DHT22;7652;53.584;9.998;2023-12-04T01:30:22;-0.30;99.90
15103;DHT22;7652;53.584;9.998;2023-12-04T01:33:43;-0.30;99.90
15103;DHT22;7652;53.584;9.998;2023-12-04T01:37:05;-0.30;99.90
15103;DHT22;7652;53.584;9.998;2023-12-04T01:40:26;-0.30;99.90
15103;DHT22;7652;53.584;9.998;2023-12-04T01:43:49;-0.40;99.90
15103;DHT22;7652;53.584;9.998;2023-12-04T01:47:11;-0.40;99.90
15103;DHT22;7652;53.584;9.998;2023-12-04T01:50:33;-0.40;99.90
15103;DHT22;7652;53.584;9.998;2023-12-04T01:53:56;-0.50;99.90
15103;DHT22;7652;53.584;9.998;2023-12-04T01:57:19;-0.40;99.90
15103;DHT22;7652;53.584;9.998;2023-12-04T02:00:41;-0.50;99.90
15103;DHT22;7652;53.584;9.998;2023-12-04T02:04:04;-0.60;99.90
15103;DHT22;7652;53.584;9.998;2023-12-04T02:07:26;-0.60;99.90
15103;DHT22;7652;53.584;9.998;2023-12-04T02:10:47;-0.60;99.90
15103;DHT22;7652;53.584;9.998;2023-12-04T02:14:09;-0.50;99.90
15103;DHT22;7652;53.584;9.998;2023-12-04T02:17:32;-0.50;99.90
15103;DHT22;7652;53.584;9.998;2023-12-04T02:20:55;-0.40;99.90
15103;DHT22;7652;53.584;9.998;2023-12-04T02:24:18;-0.30;99.90
15103;DHT22;7652;53.584;9.998;2023-12-04T02:27:44;-0.30;99.90
15103;DHT22;7652;53.584;9.998;2023-12-04T02:31:09;-0.40;99.90
15103;DHT22;7652;53.584;9.998;2023-12-04T02:34:32;-0.40;99.90
15103;DHT22;7652;53.584;9.998;2023-12-04T02:37:55;-0.30;99.90
15103;DHT22;7652;53.584;9.998;2023-12-04T02:41:19;-0.40;99.90
15103;DHT22;7652;53.584;9.998;2023-12-04T02:44:41;-0.30;99.90
15103;DHT22;7652;53.584;9.998;2023-12-04T02:48:03;-0.40;99.90
15103;DHT22;7652;53.584;9.998;2023-12-04T02:51:24;-0.40;99.90
15103;DHT22;7652;53.584;9.998;2023-12-04T02:54:47;-0.40;99.90
15103;DHT22;7652;53.584;9.998;2023-12-04T02:58:10;-0.40;99.90
15103;DHT22;7652;53.584;9.998;2023-12-04T03:01:31;-0.40;99.90
15103;DHT22;7652;53.584;9.998;2023-12-04T03:04:53;-0.30;99.90
15103;DHT22;7652;53.584;9.998;2023-12-04T03:08:14;-0.40;99.90
15103;DHT22;7652;53.584;9.998;2023-12-04T03:11:36;-0.40;99.90
15103;DHT22;7652;53.584;9.998;2023-12-04T03:15:01;-0.40;99.90
15103;DHT22;7652;53.584;9.998;2023-12-04T03:18:23;-0.30;99.90
15103;DHT22;7652;53.584;9.998;2023-12-04T03:21:46;-0.40;99.90
15103;DHT22;7652;53.584;9.998;2023-12-04T03:25:08;-0.30;99.90
15103;DHT22;7652;53.584;9.998;2023-12-04T03:28:30;-0.40;99.90
15103;DHT22;7652;53.584;9.998;2023-12-04T03:31:52;-0.40;99.90
15103;DHT22;7652;53.584;9.998;2023-12-04T03:35:14;-0.40;99.90
15103;DHT22;7652;53.584;9.998;2023-12-04T03:38:36;-0.40;99.90
15103;DHT22;7652;53.584;9.998;2023-12-04T03:41:57;-0.30;99.90
15103;DHT22;7652;53.584;9.998;2023-12-04T03:45:18;-0.30;99.90
15103;DHT22;7652;53.584;9.998;2023-12-04T03:48:41;-0.20;99.90
15103;DHT22;7652;53.584;9.998;2023-12-04T03:52:03;-0.30;99.90
15103;DHT22;7652;53.584;9.998;2023-12-04T03:55:25;-0.20;99.90
15103;DHT22;7652;53.584;9.998;2023-12-04T03:58:47;-0.30;99.90
15103;DHT22;7652;53.584;9.998;2023-12-04T04:02:08;-0.20;99.90
15103;DHT22;7652;53.584;9.998;2023-12-04T04:05:31;-0.10;99.90
15103;DHT22;7652;53.584;9.998;2023-12-04T04:08:54;-0.10;99.90
15103;DHT22;7652;53.584;9.998;2023-12-04T04:12:15;-0.10;99.90
15103;DHT22;7652;53.584;9.998;2023-12-04T04:15:37;-0.10;99.90
15103;DHT22;7652;53.584;9.998;2023-12-04T04:18:58;-0.10;99.90
15103;DHT22;7652;53.584;9.998;2023-12-04T04:22:21;-0.20;99.90
15103;DHT22;7652;53.584;9.998;2023-12-04T04:25:43;-0.10;99.90
15103;DHT22;7652;53.584;9.998;2023-12-04T04:29:04;0.00;99.90
15103;DHT22;7652;53.584;9.998;2023-12-04T04:32:26;0.20;99.90
15103;DHT22;7652;53.584;9.998;2023-12-04T04:35:48;0.30;99.90
15103;DHT22;7652;53.584;9.998;2023-12-04T04:39:12;0.30;99.90
15103;DHT22;7652;53.584;9.998;2023-12-04T04:42:34;0.30;99.90
15103;DHT22;7652;53.584;9.998;2023-12-04T04:45:56;0.40;99.90
15103;DHT22;7652;53.584;9.998;2023-12-04T04:49:18;0.30;99.90
15103;DHT22;7652;53.584;9.998;2023-12-04T04:52:40;0.30;99.90
15103;DHT22;7652;53.584;9.998;2023-12-04T04:56:03;0.30;99.90
15103;DHT22;7652;53.584;9.998;2023-12-04T04:59:25;0.20;99.90
15103;DHT22;7652;53.584;9.998;2023-12-04T05:02:47;0.30;99.90
15103;DHT22;7652;53.584;9.998;2023-12-04T05:06:09;0.20;99.90
15103;DHT22;7652;53.584;9.998;2023-12-04T05:09:31;0.40;99.90
15103;DHT22;7652;53.584;9.998;2023-12-04T05:12:53;0.40;99.90
15103;DHT22;7652;53.584;9.998;2023-12-04T05:16:15;0.50;99.90
15103;DHT22;7652;53.584;9.998;2023-12-04T05:19:37;0.70;99.90
15103;DHT22;7652;53.584;9.998;2023-12-04T05:22:58;0.60;99.90
15103;DHT22;7652;53.584;9.998;2023-12-04T05:26:20;0.50;99.90
15103;DHT22;7652;53.584;9.998;2023-12-04T05:29:43;0.40;99.90
15103;DHT22;7652;53.584;9.998;2023-12-04T05:33:04;0.50;99.90
15103;DHT22;7652;53.584;9.998;2023-12-04T05:36:27;0.40;99.90
15103;DHT22;7652;53.584;9.998;2023-12-04T05:39:49;0.30;99.90
15103;DHT22;7652;53.584;9.998;2023-12-04T05:43:10;0.40;99.90
15103;DHT22;7652;53.584;9.998;2023-12-04T05:46:33;0.30;99.90
15103;DHT22;7652;53.584;9.998;2023-12-04T05:49:55;0.50;99.90
15103;DHT22;7652;53.584;9.998;2023-12-04T05:53:16;0.50;99.90
15103;DHT22;7652;53.584;9.998;2023-12-04T05:56:38;0.60;99.90
15103;DHT22;7652;53.584;9.998;2023-12-04T05:59:59;0.40;99.90
15103;DHT22;7652;53.584;9.998;2023-12-04T06:03:22;0.50;99.90
15103;DHT22;7652;53.584;9.998;2023-12-04T06:06:43;0.50;99.90
15103;DHT22;7652;53.584;9.998;2023-12-04T06:10:06;0.50;99.90
15103;DHT22;7652;53.584;9.998;2023-12-04T06:13:28;0.40;99.90
15103;DHT22;7652;53.584;9.998;2023-12-04T06:16:49;0.40;99.90
15103;DHT22;7652;53.584;9.998;2023-12-04T06:20:13;0.20;99.90
15103;DHT22;7652;53.584;9.998;2023-12-04T06:23:35;0.10;99.90
15103;DHT22;7652;53.584;9.998;2023-12-04T06:26:57;0.20;99.90
15103;DHT22;7652;53.584;9.998;2023-12-04T06:30:19;0.20;99.90
15103;DHT22;7652;53.584;9.998;2023-12-04T06:33:41;0.10;99.90
15103;DHT22;7652;53.584;9.998;2023-12-04T06:37:09;0.00;99.90
15103;DHT22;7652;53.584;9.998;2023-12-04T06:40:31;0.10;99.90
15103;DHT22;7652;53.584;9.998;2023-12-04T06:43:53;0.10;99.90
15103;DHT22;7652;53.584;9.998;2023-12-04T06:47:19;0.10;99.90
15103;DHT22;7652;53.584;9.998;2023-12-04T06:50:43;0.10;99.90
15103;DHT22;7652;53.584;9.998;2023-12-04T06:54:06;0.10;99.90
15103;DHT22;7652;53.584;9.998;2023-12-04T06:57:27;0.00;99.90
15103;DHT22;7652;53.584;9.998;2023-12-04T07:00:49;0.10;99.90
15103;DHT22;7652;53.584;9.998;2023-12-04T07:04:11;0.20;99.90
15103;DHT22;7652;53.584;9.998;2023-12-04T07:07:32;0.30;99.90
15103;DHT22;7652;53.584;9.998;2023-12-04T07:10:55;0.10;99.90
15103;DHT22;7652;53.584;9.998;2023-12-04T07:14:16;0.20;99.90
15103;DHT22;7652;53.584;9.998;2023-12-04T07:17:39;0.10;99.90
15103;DHT22;7652;53.584;9.998;2023-12-04T07:21:01;0.10;99.90
15103;DHT22;7652;53.584;9.998;2023-12-04T07:24:24;0.10;99.90
15103;DHT22;7652;53.584;9.998;2023-12-04T07:27:47;0.20;99.90
15103;DHT22;7652;53.584;9.998;2023-12-04T07:31:09;0.10;99.90
15103;DHT22;7652;53.584;9.998;2023-12-04T07:34:32;0.20;99.90
15103;DHT22;7652;53.584;9.998;2023-12-04T07:37:53;0.20;99.90
15103;DHT22;7652;53.584;9.998;2023-12-04T07:41:15;0.30;99.90
15103;DHT22;7652;53.584;9.998;2023-12-04T07:44:38;0.20;99.90
15103;DHT22;7652;53.584;9.998;2023-12-04T07:47:59;0.30;99.90
15103;DHT22;7652;53.584;9.998;2023-12-04T07:51:21;0.30;99.90
15103;DHT22;7652;53.584;9.998;2023-12-04T07:54:42;0.30;99.90
15103;DHT22;7652;53.584;9.998;2023-12-04T07:58:04;0.30;99.90
15103;DHT22;7652;53.584;9.998;2023-12-04T08:01:27;0.30;99.90
15103;DHT22;7652;53.584;9.998;2023-12-04T08:04:48;0.40;99.90
15103;DHT22;7652;53.584;9.998;2023-12-04T08:08:09;0.50;99.90
15103;DHT22;7652;53.584;9.998;2023-12-04T08:11:31;0.30;99.90
15103;DHT22;7652;53.584;9.998;2023-12-04T08:14:52;0.30;99.90
15103;DHT22;7652;53.584;9.998;2023-12-04T08:18:15;0.40;99.90
15103;DHT22;7652;53.584;9.998;2023-12-04T08:21:36;0.40;99.90
15103;DHT22;7652;53.584;9.998;2023-12-04T08:24:58;0.50;99.90
15103;DHT22;7652;53.584;9.998;2023-12-04T08:28:20;0.60;99.90
15103;DHT22;7652;53.584;9.998;2023-12-04T08:31:41;0.50;99.90
15103;DHT22;7652;53.584;9.998;2023-12-04T08:35:05;0.60;99.90
15103;DHT22;7652;53.584;9.998;2023-12-04T08:38:26;0.60;99.90
15103;DHT22;7652;53.584;9.998;2023-12-04T08:41:48;0.60;99.90
15103;DHT22;7652;53.584;9.998;2023-12-04T08:45:20;0.50;99.90
15103;DHT22;7652;53.584;9.998;2023-12-04T08:48:41;0.40;99.90
15103;DHT22;7652;53.584;9.998;2023-12-04T08:52:05;0.50;99.90
15103;DHT22;7652;53.584;9.998;2023-12-04T08:55:27;0.50;99.90
15103;DHT22;7652;53.584;9.998;2023-12-04T08:58:49;0.40;99.90
15103;DHT22;7652;53.584;9.998;2023-12-04T09:02:11;0.40;99.90
15103;DHT22;7652;53.584;9.998;2023-12-04T09:05:34;0.50;99.90
15103;DHT22;7652;53.584;9.998;2023-12-04T09:08:58;0.40;99.90
15103;DHT22;7652;53.584;9.998;2023-12-04T09:12:28;0.50;99.90
15103;DHT22;7652;53.584;9.998;2023-12-04T09:15:49;0.60;99.90
15103;DHT22;7652;53.584;9.998;2023-12-04T09:19:10;0.60;99.90
15103;DHT22;7652;53.584;9.998;2023-12-04T09:22:33;0.70;99.90
15103;DHT22;7652;53.584;9.998;2023-12-04T09:26:11;0.70;99.90
15103;DHT22;7652;53.584;9.998;2023-12-04T09:29:34;0.70;99.90
15103;DHT22;7652;53.584;9.998;2023-12-04T09:32:55;0.70;99.90
15103;DHT22;7652;53.584;9.998;2023-12-04T09:36:17;0.60;99.90
15103;DHT22;7652;53.584;9.998;2023-12-04T09:39:38;0.60;99.90
15103;DHT22;7652;53.584;9.998;2023-12-04T09:43:03;0.70;99.90
15103;DHT22;7652;53.584;9.998;2023-12-04T09:46:24;0.70;99.90
15103;DHT22;7652;53.584;9.998;2023-12-04T09:49:48;0.70;99.90
15103;DHT22;7652;53.584;9.998;2023-12-04T09:53:13;0.60;99.90
15103;DHT22;7652;53.584;9.998;2023-12-04T09:56:35;0.60;99.90
15103;DHT22;7652;53.584;9.998;2023-12-04T10:00:00;0.70;99.90
15103;DHT22;7652;53.584;9.998;2023-12-04T10:03:24;0.80;99.90
15103;DHT22;7652;53.584;9.998;2023-12-04T10:06:46;0.90;99.90
15103;DHT22;7652;53.584;9.998;2023-12-04T10:10:09;0.90;99.90
15103;DHT22;7652;53.584;9.998;2023-12-04T10:13:31;0.90;99.90
15103;DHT22;7652;53.584;9.998;2023-12-04T10:17:15;1.00;99.90
15103;DHT22;7652;53.584;9.998;2023-12-04T10:20:51;1.10;99.90
15103;DHT22;7652;53.584;9.998;2023-12-04T10:24:27;1.20;99.90
15103;DHT22;7652;53.584;9.998;2023-12-04T10:27:49;1.20;99.90
15103;DHT22;7652;53.584;9.998;2023-12-04T10:31:11;1.30;99.90
15103;DHT22;7652;53.584;9.998;2023-12-04T10:34:34;1.10;99.90
15103;DHT22;7652;53.584;9.998;2023-12-04T10:37:56;1.00;99.90
15103;DHT22;7652;53.584;9.998;2023-12-04T10:41:18;1.00;99.90
15103;DHT22;7652;53.584;9.998;2023-12-04T10:44:40;1.20;99.90
15103;DHT22;7652;53.584;9.998;2023-12-04T10:48:02;1.30;99.90
15103;DHT22;7652;53.584;9.998;2023-12-04T10:51:27;1.20;99.90
15103;DHT22;7652;53.584;9.998;2023-12-04T10:54:50;1.20;99.90
15103;DHT22;7652;53.584;9.998;2023-12-04T10:58:13;1.30;99.90
15103;DHT22;7652;53.584;9.998;2023-12-04T11:01:35;1.20;99.90
15103;DHT22;7652;53.584;9.998;2023-12-04T11:05:01;1.30;99.90
15103;DHT22;7652;53.584;9.998;2023-12-04T11:08:29;1.50;99.90
15103;DHT22;7652;53.584;9.998;2023-12-04T11:11:57;1.40;99.90
15103;DHT22;7652;53.584;9.998;2023-12-04T11:15:23;1.40;99.90
15103;DHT22;7652;53.584;9.998;2023-12-04T11:18:58;1.40;99.90
15103;DHT22;7652;53.584;9.998;2023-12-04T11:22:25;1.50;99.90
15103;DHT22;7652;53.584;9.998;2023-12-04T11:25:48;1.50;99.90
15103;DHT22;7652;53.584;9.998;2023-12-04T11:29:12;1.40;99.90
15103;DHT22;7652;53.584;9.998;2023-12-04T11:32:44;1.50;99.90
15103;DHT22;7652;53.584;9.998;2023-12-04T11:36:07;1.50;99.90
15103;DHT22;7652;53.584;9.998;2023-12-04T11:39:34;1.40;99.90
15103;DHT22;7652;53.584;9.998;2023-12-04T11:42:57;1.30;99.90
15103;DHT22;7652;53.584;9.998;2023-12-04T11:46:19;1.40;99.90
15103;DHT22;7652;53.584;9.998;2023-12-04T11:49:43;1.50;99.90
15103;DHT22;7652;53.584;9.998;2023-12-04T11:53:04;1.60;99.90
15103;DHT22;7652;53.584;9.998;2023-12-04T11:56:26;1.60;99.90
15103;DHT22;7652;53.584;9.998;2023-12-04T11:59:49;1.60;99.90
15103;DHT22;7652;53.584;9.998;2023-12-04T12:03:10;1.70;99.90
15103;DHT22;7652;53.584;9.998;2023-12-04T12:06:42;1.70;99.90
15103;DHT22;7652;53.584;9.998;2023-12-04T12:10:05;1.70;99.90
15103;DHT22;7652;53.584;9.998;2023-12-04T12:13:27;1.50;99.90
15103;DHT22;7652;53.584;9.998;2023-12-04T12:16:50;1.50;99.90
15103;DHT22;7652;53.584;9.998;2023-12-04T12:20:15;1.50;99.90
15103;DHT22;7652;53.584;9.998;2023-12-04T12:23:36;1.50;99.90
15103;DHT22;7652;53.584;9.998;2023-12-04T12:26:58;1.50;99.90
15103;DHT22;7652;53.584;9.998;2023-12-04T12:30:19;1.50;99.90
15103;DHT22;7652;53.584;9.998;2023-12-04T12:33:42;1.50;99.90
15103;DHT22;7652;53.584;9.998;2023-12-04T12:37:04;1.40;99.90
15103;DHT22;7652;53.584;9.998;2023-12-04T12:40:28;1.50;99.90
15103;DHT22;7652;53.584;9.998;2023-12-04T12:43:51;1.40;99.90
15103;DHT22;7652;53.584;9.998;2023-12-04T12:47:14;1.40;99.90
15103;DHT22;7652;53.584;9.998;2023-12-04T12:50:37;1.40;99.90
15103;DHT22;7652;53.584;9.998;2023-12-04T12:53:59;1.50;99.90
15103;DHT22;7652;53.584;9.998;2023-12-04T12:57:20;1.60;99.90
15103;DHT22;7652;53.584;9.998;2023-12-04T13:00:43;1.70;99.90
15103;DHT22;7652;53.584;9.998;2023-12-04T13:04:05;1.70;99.90
15103;DHT22;7652;53.584;9.998;2023-12-04T13:07:28;1.70;99.90
15103;DHT22;7652;53.584;9.998;2023-12-04T13:10:50;1.60;99.90
15103;DHT22;7652;53.584;9.998;2023-12-04T13:14:13;1.50;99.90
15103;DHT22;7652;53.584;9.998;2023-12-04T13:17:34;1.60;99.90
15103;DHT22;7652;53.584;9.998;2023-12-04T13:20:56;1.40;99.90
15103;DHT22;7652;53.584;9.998;2023-12-04T13:24:19;1.40;99.90
15103;DHT22;7652;53.584;9.998;2023-12-04T13:27:40;1.50;99.90
15103;DHT22;7652;53.584;9.998;2023-12-04T13:31:02;1.50;99.90
15103;DHT22;7652;53.584;9.998;2023-12-04T13:34:25;1.50;99.90
15103;DHT22;7652;53.584;9.998;2023-12-04T13:37:46;1.50;99.90
15103;DHT22;7652;53.584;9.998;2023-12-04T13:41:16;1.50;99.90
15103;DHT22;7652;53.584;9.998;2023-12-04T13:45:02;1.50;99.90
15103;DHT22;7652;53.584;9.998;2023-12-04T13:48:25;1.40;99.90
15103;DHT22;7652;53.584;9.998;2023-12-04T13:51:46;1.50;99.90
15103;DHT22;7652;53.584;9.998;2023-12-04T13:55:10;1.60;99.90
15103;DHT22;7652;53.584;9.998;2023-12-04T13:58:41;1.50;99.90
15103;DHT22;7652;53.584;9.998;2023-12-04T14:02:04;1.50;99.90
15103;DHT22;7652;53.584;9.998;2023-12-04T14:05:31;1.50;99.90
15103;DHT22;7652;53.584;9.998;2023-12-04T14:08:56;1.50;99.90
15103;DHT22;7652;53.584;9.998;2023-12-04T14:12:18;1.50;99.90
15103;DHT22;7652;53.584;9.998;2023-12-04T14:15:41;1.40;99.90
15103;DHT22;7652;53.584;9.998;2023-12-04T14:19:02;1.50;99.90
15103;DHT22;7652;53.584;9.998;2023-12-04T14:22:25;1.50;99.90
15103;DHT22;7652;53.584;9.998;2023-12-04T14:25:47;1.40;99.90
15103;DHT22;7652;53.584;9.998;2023-12-04T14:29:09;1.40;99.90
15103;DHT22;7652;53.584;9.998;2023-12-04T14:32:31;1.50;99.90
15103;DHT22;7652;53.584;9.998;2023-12-04T14:36:06;1.40;99.90
15103;DHT22;7652;53.584;9.998;2023-12-04T14:39:27;1.40;99.90
15103;DHT22;7652;53.584;9.998;2023-12-04T14:42:49;1.40;99.90
15103;DHT22;7652;53.584;9.998;2023-12-04T14:46:11;1.40;99.90
15103;DHT22;7652;53.584;9.998;2023-12-04T14:49:34;1.50;99.90
15103;DHT22;7652;53.584;9.998;2023-12-04T14:52:56;1.40;99.90
15103;DHT22;7652;53.584;9.998;2023-12-04T14:56:24;1.30;99.90
15103;DHT22;7652;53.584;9.998;2023-12-04T15:00:06;1.30;99.90
15103;DHT22;7652;53.584;9.998;2023-12-04T15:03:45;1.20;99.90
15103;DHT22;7652;53.584;9.998;2023-12-04T15:07:41;1.20;99.90
15103;DHT22;7652;53.584;9.998;2023-12-04T15:11:17;1.10;99.90
15103;DHT22;7652;53.584;9.998;2023-12-04T15:14:55;1.20;99.90
15103;DHT22;7652;53.584;9.998;2023-12-04T15:18:32;1.20;99.90
15103;DHT22;7652;53.584;9.998;2023-12-04T15:21:57;1.30;99.90
15103;DHT22;7652;53.584;9.998;2023-12-04T15:25:20;1.20;99.90
15103;DHT22;7652;53.584;9.998;2023-12-04T15:28:42;1.20;99.90
15103;DHT22;7652;53.584;9.998;2023-12-04T15:32:05;1.30;99.90
15103;DHT22;7652;53.584;9.998;2023-12-04T15:35:26;1.50;99.90
15103;DHT22;7652;53.584;9.998;2023-12-04T15:38:47;1.50;99.90
15103;DHT22;7652;53.584;9.998;2023-12-04T15:42:10;1.60;99.90
15103;DHT22;7652;53.584;9.998;2023-12-04T15:45:33;1.50;99.90
15103;DHT22;7652;53.584;9.998;2023-12-04T15:48:54;1.40;99.90
15103;DHT22;7652;53.584;9.998;2023-12-04T15:52:16;1.40;99.90
15103;DHT22;7652;53.584;9.998;2023-12-04T15:55:39;1.40;99.90
15103;DHT22;7652;53.584;9.998;2023-12-04T15:59:01;1.40;99.90
15103;DHT22;7652;53.584;9.998;2023-12-04T16:02:23;1.50;99.90
15103;DHT22;7652;53.584;9.998;2023-12-04T16:05:44;1.60;99.90
15103;DHT22;7652;53.584;9.998;2023-12-04T16:09:06;1.60;99.90
15103;DHT22;7652;53.584;9.998;2023-12-04T16:12:34;1.60;99.90
15103;DHT22;7652;53.584;9.998;2023-12-04T16:15:57;1.60;99.90
15103;DHT22;7652;53.584;9.998;2023-12-04T16:19:19;1.60;99.90
15103;DHT22;7652;53.584;9.998;2023-12-04T16:22:41;1.70;99.90
15103;DHT22;7652;53.584;9.998;2023-12-04T16:26:06;1.70;99.90
15103;DHT22;7652;53.584;9.998;2023-12-04T16:29:27;1.70;99.90
15103;DHT22;7652;53.584;9.998;2023-12-04T16:32:55;1.60;99.90
15103;DHT22;7652;53.584;9.998;2023-12-04T16:36:17;1.60;99.90
15103;DHT22;7652;53.584;9.998;2023-12-04T16:39:39;1.60;99.90
15103;DHT22;7652;53.584;9.998;2023-12-04T16:43:02;1.50;99.90
15103;DHT22;7652;53.584;9.998;2023-12-04T16:46:24;1.40;99.90
15103;DHT22;7652;53.584;9.998;2023-12-04T16:49:47;1.40;99.90
15103;DHT22;7652;53.584;9.998;2023-12-04T16:53:08;1.50;99.90
15103;DHT22;7652;53.584;9.998;2023-12-04T16:56:31;1.50;99.90
15103;DHT22;7652;53.584;9.998;2023-12-04T16:59:52;1.50;99.90
15103;DHT22;7652;53.584;9.998;2023-12-04T17:03:16;1.50;99.90
15103;DHT22;7652;53.584;9.998;2023-12-04T17:06:39;1.50;99.90
15103;DHT22;7652;53.584;9.998;2023-12-04T17:10:01;1.60;99.90
15103;DHT22;7652;53.584;9.998;2023-12-04T17:13:24;1.50;99.90
15103;DHT22;7652;53.584;9.998;2023-12-04T17:16:46;1.50;99.90
15103;DHT22;7652;53.584;9.998;2023-12-04T17:20:07;1.50;99.90
15103;DHT22;7652;53.584;9.998;2023-12-04T17:23:31;1.60;99.90
15103;DHT22;7652;53.584;9.998;2023-12-04T17:26:52;1.60;99.90
15103;DHT22;7652;53.584;9.998;2023-12-04T17:30:14;1.60;99.90
15103;DHT22;7652;53.584;9.998;2023-12-04T17:33:36;1.50;99.90
15103;DHT22;7652;53.584;9.998;2023-12-04T17:36:58;1.50;99.90
15103;DHT22;7652;53.584;9.998;2023-12-04T17:40:20;1.40;99.90
15103;DHT22;7652;53.584;9.998;2023-12-04T17:43:43;1.50;99.90
15103;DHT22;7652;53.584;9.998;2023-12-04T17:47:04;1.50;99.90
15103;DHT22;7652;53.584;9.998;2023-12-04T17:50:26;1.40;99.90
15103;DHT22;7652;53.584;9.998;2023-12-04T17:53:47;1.30;99.90
15103;DHT22;7652;53.584;9.998;2023-12-04T17:57:10;1.40;99.90
15103;DHT22;7652;53.584;9.998;2023-12-04T18:00:32;1.50;99.90
15103;DHT22;7652;53.584;9.998;2023-12-04T18:03:53;1.50;99.90
15103;DHT22;7652;53.584;9.998;2023-12-04T18:07:16;1.60;99.90
15103;DHT22;7652;53.584;9.998;2023-12-04T18:10:38;1.60;99.90
15103;DHT22;7652;53.584;9.998;2023-12-04T18:14:01;1.50;99.90
15103;DHT22;7652;53.584;9.998;2023-12-04T18:17:24;1.50;99.90
15103;DHT22;7652;53.584;9.998;2023-12-04T18:20:48;1.50;99.90
15103;DHT22;7652;53.584;9.998;2023-12-04T18:24:12;1.50;99.90
15103;DHT22;7652;53.584;9.998;2023-12-04T18:27:33;1.50;99.90
15103;DHT22;7652;53.584;9.998;2023-12-04T18:30:57;1.40;99.90
15103;DHT22;7652;53.584;9.998;2023-12-04T18:34:20;1.40;99.90
15103;DHT22;7652;53.584;9.998;2023-12-04T18:37:44;1.50;99.90
15103;DHT22;7652;53.584;9.998;2023-12-04T18:41:09;1.60;99.90
15103;DHT22;7652;53.584;9.998;2023-12-04T18:44:31;1.60;99.90
15103;DHT22;7652;53.584;9.998;2023-12-04T18:47:58;1.60;99.90
15103;DHT22;7652;53.584;9.998;2023-12-04T18:51:21;1.70;99.90
15103;DHT22;7652;53.584;9.998;2023-12-04T18:54:42;1.70;99.90
15103;DHT22;7652;53.584;9.998;2023-12-04T18:58:04;1.70;99.90
15103;DHT22;7652;53.584;9.998;2023-12-04T19:01:29;1.70;99.90
15103;DHT22;7652;53.584;9.998;2023-12-04T19:04:52;1.60;99.90
15103;DHT22;7652;53.584;9.998;2023-12-04T19:08:14;1.60;99.90
15103;DHT22;7652;53.584;9.998;2023-12-04T19:11:36;1.70;99.90
15103;DHT22;7652;53.584;9.998;2023-12-04T19:14:57;1.60;99.90
15103;DHT22;7652;53.584;9.998;2023-12-04T19:18:19;1.60;99.90
15103;DHT22;7652;53.584;9.998;2023-12-04T19:21:42;1.60;99.90
15103;DHT22;7652;53.584;9.998;2023-12-04T19:25:05;1.60;99.90
15103;DHT22;7652;53.584;9.998;2023-12-04T19:28:26;1.60;99.90
15103;DHT22;7652;53.584;9.998;2023-12-04T19:31:51;1.50;99.90
15103;DHT22;7652;53.584;9.998;2023-12-04T19:35:12;1.60;99.90
15103;DHT22;7652;53.584;9.998;2023-12-04T19:38:35;1.50;99.90
15103;DHT22;7652;53.584;9.998;2023-12-04T19:41:59;1.50;99.90
15103;DHT22;7652;53.584;9.998;2023-12-04T19:45:21;1.50;99.90
15103;DHT22;7652;53.584;9.998;2023-12-04T19:48:44;1.50;99.90
15103;DHT22;7652;53.584;9.998;2023-12-04T19:52:05;1.50;99.90
15103;DHT22;7652;53.584;9.998;2023-12-04T19:55:28;1.60;99.90
15103;DHT22;7652;53.584;9.998;2023-12-04T19:58:50;1.20;99.90
15103;DHT22;7652;53.584;9.998;2023-12-04T20:02:11;1.30;99.90
15103;DHT22;7652;53.584;9.998;2023-12-04T20:05:33;1.10;99.90
15103;DHT22;7652;53.584;9.998;2023-12-04T20:08:55;0.90;99.90
15103;DHT22;7652;53.584;9.998;2023-12-04T20:12:18;1.10;99.90
15103;DHT22;7652;53.584;9.998;2023-12-04T20:15:40;1.20;99.90
15103;DHT22;7652;53.584;9.998;2023-12-04T20:19:01;1.20;99.90
15103;DHT22;7652;53.584;9.998;2023-12-04T20:22:24;1.10;99.90
15103;DHT22;7652;53.584;9.998;2023-12-04T20:25:45;1.10;99.90
15103;DHT22;7652;53.584;9.998;2023-12-04T20:29:08;1.10;99.90
15103;DHT22;7652;53.584;9.998;2023-12-04T20:32:30;1.10;99.90
15103;DHT22;7652;53.584;9.998;2023-12-04T20:35:52;1.00;99.90
15103;DHT22;7652;53.584;9.998;2023-12-04T20:39:13;1.00;99.90
15103;DHT22;7652;53.584;9.998;2023-12-04T20:42:35;1.10;99.90
15103;DHT22;7652;53.584;9.998;2023-12-04T20:45:59;1.10;99.90
15103;DHT22;7652;53.584;9.998;2023-12-04T20:49:23;1.00;99.90
15103;DHT22;7652;53.584;9.998;2023-12-04T20:52:45;1.00;99.90
15103;DHT22;7652;53.584;9.998;2023-12-04T20:56:08;1.10;99.90
15103;DHT22;7652;53.584;9.998;2023-12-04T20:59:29;1.10;99.90
15103;DHT22;7652;53.584;9.998;2023-12-04T21:02:52;1.00;99.90
15103;DHT22;7652;53.584;9.998;2023-12-04T21:06:14;1.00;99.90
15103;DHT22;7652;53.584;9.998;2023-12-04T21:09:35;1.00;99.90
15103;DHT22;7652;53.584;9.998;2023-12-04T21:12:58;0.90;99.90
15103;DHT22;7652;53.584;9.998;2023-12-04T21:16:20;1.00;99.90
15103;DHT22;7652;53.584;9.998;2023-12-04T21:19:43;1.00;99.90
15103;DHT22;7652;53.584;9.998;2023-12-04T21:23:04;0.90;99.90
15103;DHT22;7652;53.584;9.998;2023-12-04T21:26:30;1.00;99.90
15103;DHT22;7652;53.584;9.998;2023-12-04T21:29:52;0.90;99.90
15103;DHT22;7652;53.584;9.998;2023-12-04T21:33:13;1.00;99.90
15103;DHT22;7652;53.584;9.998;2023-12-04T21:36:38;1.00;99.90
15103;DHT22;7652;53.584;9.998;2023-12-04T21:40:00;0.90;99.90
15103;DHT22;7652;53.584;9.998;2023-12-04T21:43:21;0.90;99.90
15103;DHT22;7652;53.584;9.998;2023-12-04T21:46:43;0.70;99.90
15103;DHT22;7652;53.584;9.998;2023-12-04T21:50:05;0.80;99.90
15103;DHT22;7652;53.584;9.998;2023-12-04T21:53:28;0.80;99.90
15103;DHT22;7652;53.584;9.998;2023-12-04T21:56:50;1.00;99.90
15103;DHT22;7652;53.584;9.998;2023-12-04T22:00:12;1.00;99.90
15103;DHT22;7652;53.584;9.998;2023-12-04T22:03:34;0.90;99.90